Time;durP1;ratioP1;P1;durP2;ratioP2;P2;SDS_P1;SDS_P2;PMS_P1;PMS_P2;Temp;Humidity;BMP_temperature;BMP_pressure;BME280_temperature;BME280_humidity;BME280_pressure;Samples;Min_cycle;Max_cycle;Signal;HPM_P1;HPM_P2
2023/10/30 00:01:09;;;;;;;7.78;1.70;;;10.30;99.90;;;;;;6113844;23;20018;-81
2023/10/30 00:03:34;;;;;;;8.98;1.67;;;10.20;99.90;;;;;;6114238;23;20013;-81
2023/10/30 00:06:00;;;;;;;4.70;1.33;;;10.20;99.90;;;;;;6089344;23;20435;-81
2023/10/30 00:08:26;;;;;;;4.85;1.38;;;10.10;99.90;;;;;;6090866;23;20060;-81
2023/10/30 00:10:52;;;;;;;3.13;1.30;;;10.10;99.90;;;;;;6112655;23;20116;-81
2023/10/30 00:13:17;;;;;;;5.78;1.27;;;10.10;99.90;;;;;;6113878;23;20013;-81
2023/10/30 00:15:43;;;;;;;5.13;1.50;;;10.10;99.90;;;;;;6114911;23;20019;-81
2023/10/30 00:18:12;;;;;;;5.13;1.50;;;10.10;99.90;;;;;;6114905;23;20142;-81
2023/10/30 00:20:38;;;;;;;4.22;1.20;;;10.10;99.90;;;;;;6113917;23;20025;-81
2023/10/30 00:23:03;;;;;;;4.32;1.45;;;10.00;99.90;;;;;;6090953;23;20022;-81
2023/10/30 00:25:29;;;;;;;5.55;1.40;;;10.00;99.90;;;;;;6112435;23;20017;-81
2023/10/30 00:27:59;;;;;;;4.57;1.27;;;10.00;99.90;;;;;;6088954;23;20069;-81
2023/10/30 00:30:26;;;;;;;3.13;1.58;;;9.90;99.90;;;;;;6114161;23;20016;-81
2023/10/30 00:32:51;;;;;;;4.32;1.48;;;9.90;99.90;;;;;;6089705;23;20013;-81
2023/10/30 00:35:17;;;;;;;6.43;1.73;;;9.80;99.90;;;;;;6090376;23;20028;-81
2023/10/30 00:37:44;;;;;;;8.93;1.73;;;9.80;99.90;;;;;;6089847;23;20048;-81
2023/10/30 00:40:11;;;;;;;3.70;1.30;;;9.70;99.90;;;;;;6112183;23;20240;-81
2023/10/30 00:42:36;;;;;;;6.10;1.30;;;9.70;99.90;;;;;;6087705;23;20463;-81
2023/10/30 00:45:04;;;;;;;6.82;1.42;;;9.70;99.90;;;;;;6113857;23;20013;-81
2023/10/30 00:47:30;;;;;;;3.38;1.42;;;9.60;99.90;;;;;;6089639;23;20416;-81
2023/10/30 00:49:56;;;;;;;6.95;1.67;;;9.60;99.90;;;;;;6089997;23;20096;-81
2023/10/30 00:52:22;;;;;;;5.07;1.40;;;9.60;99.90;;;;;;6113811;23;20095;-81
2023/10/30 00:54:48;;;;;;;2.72;1.45;;;9.50;99.90;;;;;;6114747;23;20346;-81
2023/10/30 00:57:14;;;;;;;5.47;1.40;;;9.50;99.90;;;;;;6085979;23;20088;-81
2023/10/30 00:59:40;;;;;;;5.13;1.30;;;9.50;99.90;;;;;;6138174;23;20167;-81
2023/10/30 01:02:05;;;;;;;5.07;1.60;;;9.50;99.90;;;;;;6088843;23;20048;-81
2023/10/30 01:04:31;;;;;;;2.88;1.42;;;9.50;99.90;;;;;;6089401;23;20375;-81
2023/10/30 01:06:58;;;;;;;4.65;1.45;;;9.50;99.90;;;;;;6113108;23;20057;-81
2023/10/30 01:09:23;;;;;;;4.57;1.58;;;9.50;99.90;;;;;;6114433;23;20114;-81
2023/10/30 01:11:49;;;;;;;7.30;1.70;;;9.50;99.90;;;;;;6112355;23;20486;-81
2023/10/30 01:14:15;;;;;;;4.88;1.73;;;9.50;99.90;;;;;;6091125;23;20013;-81
2023/10/30 01:16:41;;;;;;;3.92;1.98;;;9.50;99.90;;;;;;6115464;23;20347;-81
2023/10/30 01:19:06;;;;;;;5.10;1.73;;;9.40;99.90;;;;;;6115100;23;20021;-81
2023/10/30 01:21:33;;;;;;;3.53;1.52;;;9.40;99.90;;;;;;6138161;23;20604;-81
2023/10/30 01:23:59;;;;;;;6.55;1.67;;;9.40;99.90;;;;;;6089850;23;20101;-81
2023/10/30 01:26:25;;;;;;;6.97;1.73;;;9.50;99.90;;;;;;6086853;23;20024;-81
2023/10/30 01:28:50;;;;;;;5.05;1.70;;;9.50;99.90;;;;;;6088179;23;20299;-81
2023/10/30 01:31:16;;;;;;;5.18;1.65;;;9.40;99.90;;;;;;6089504;23;20009;-81
2023/10/30 01:33:42;;;;;;;7.65;1.92;;;9.40;99.90;;;;;;6113665;23;20105;-81
2023/10/30 01:36:11;;;;;;;5.03;1.77;;;9.30;99.90;;;;;;6113286;23;20071;-81
2023/10/30 01:38:37;;;;;;;4.32;1.92;;;9.30;99.90;;;;;;6114582;23;20478;-81
2023/10/30 01:41:05;;;;;;;4.75;1.73;;;9.20;99.90;;;;;;6135298;23;20021;-81
2023/10/30 01:43:33;;;;;;;4.05;1.75;;;9.20;99.90;;;;;;6089039;23;20021;-81
2023/10/30 01:46:00;;;;;;;7.10;2.20;;;9.20;99.90;;;;;;6112276;23;20410;-81
2023/10/30 01:48:28;;;;;;;5.30;1.95;;;9.20;99.90;;;;;;6114254;23;20319;-81
2023/10/30 01:50:55;;;;;;;4.22;2.15;;;9.20;99.90;;;;;;6113051;23;20093;-81
2023/10/30 01:53:21;;;;;;;4.80;1.92;;;9.30;99.90;;;;;;6114801;23;20060;-81
2023/10/30 01:55:49;;;;;;;5.78;2.03;;;9.30;99.90;;;;;;6085290;23;20100;-82
2023/10/30 01:58:16;;;;;;;9.88;1.90;;;9.30;99.90;;;;;;6113439;23;20017;-81
2023/10/30 02:00:42;;;;;;;7.32;2.17;;;9.30;99.90;;;;;;6113055;23;20053;-81
2023/10/30 02:03:08;;;;;;;6.25;2.20;;;9.30;99.90;;;;;;6112968;23;20032;-81
2023/10/30 02:05:34;;;;;;;5.78;2.17;;;9.30;99.90;;;;;;6088928;23;20018;-82
2023/10/30 02:08:00;;;;;;;8.30;2.10;;;9.30;99.90;;;;;;6114290;23;20013;-82
2023/10/30 02:10:26;;;;;;;7.72;2.17;;;9.30;99.90;;;;;;6137066;23;20014;-81
2023/10/30 02:12:52;;;;;;;7.47;2.10;;;9.30;99.90;;;;;;6137545;23;20012;-81
2023/10/30 02:15:18;;;;;;;5.80;2.40;;;9.30;99.90;;;;;;6113830;23;20018;-81
2023/10/30 02:17:44;;;;;;;8.82;2.40;;;9.40;99.90;;;;;;6089160;23;20045;-81
2023/10/30 02:20:13;;;;;;;5.03;2.00;;;9.40;99.90;;;;;;6088507;23;20041;-81
2023/10/30 02:22:39;;;;;;;8.15;2.30;;;9.40;99.90;;;;;;6111998;23;20025;-81
2023/10/30 02:25:05;;;;;;;8.23;2.10;;;9.40;99.90;;;;;;6088691;23;20013;-81
2023/10/30 02:27:31;;;;;;;5.70;2.40;;;9.40;99.90;;;;;;6110642;23;20473;-81
2023/10/30 02:29:58;;;;;;;9.07;2.30;;;9.40;99.90;;;;;;6089438;23;20072;-81
2023/10/30 02:32:23;;;;;;;7.18;2.22;;;9.40;99.90;;;;;;6090484;23;20017;-81
2023/10/30 02:34:49;;;;;;;4.43;2.30;;;9.40;99.90;;;;;;6139342;23;20308;-81
2023/10/30 02:37:15;;;;;;;4.47;1.98;;;9.40;99.90;;;;;;6112951;23;20021;-82
2023/10/30 02:39:40;;;;;;;7.90;2.13;;;9.30;99.90;;;;;;6088258;23;20521;-81
2023/10/30 02:42:08;;;;;;;11.13;2.00;;;9.40;99.90;;;;;;6085734;23;20029;-81
2023/10/30 02:44:33;;;;;;;8.65;2.60;;;9.40;99.90;;;;;;6114202;23;20021;-81
2023/10/30 02:46:59;;;;;;;6.30;2.22;;;9.50;99.90;;;;;;6113898;23;20029;-81
2023/10/30 02:49:25;;;;;;;8.90;2.22;;;9.50;99.90;;;;;;6092078;23;20075;-82
2023/10/30 02:51:51;;;;;;;7.93;2.90;;;9.50;99.90;;;;;;6114237;23;20261;-81
2023/10/30 02:54:17;;;;;;;6.78;2.28;;;9.50;99.90;;;;;;6115707;23;20009;-82
2023/10/30 02:56:42;;;;;;;6.28;2.10;;;9.50;99.90;;;;;;6088033;23;20422;-81
2023/10/30 02:59:08;;;;;;;12.15;2.40;;;9.50;99.90;;;;;;6091943;23;20021;-82
2023/10/30 03:01:34;;;;;;;7.72;2.25;;;9.60;99.90;;;;;;6090649;23;20343;-82
2023/10/30 03:04:02;;;;;;;6.70;2.13;;;9.60;99.90;;;;;;6115595;23;20097;-81
2023/10/30 03:06:28;;;;;;;6.78;2.45;;;9.70;99.90;;;;;;6091257;23;20423;-82
2023/10/30 03:08:54;;;;;;;6.28;2.25;;;9.70;99.90;;;;;;6092919;23;20017;-81
2023/10/30 03:11:20;;;;;;;10.25;2.45;;;9.70;99.90;;;;;;6111937;23;20459;-81
2023/10/30 03:13:46;;;;;;;9.68;2.35;;;9.60;99.90;;;;;;6091330;23;20020;-82
2023/10/30 03:16:11;;;;;;;6.75;2.10;;;9.60;99.90;;;;;;6091305;23;20021;-81
2023/10/30 03:18:38;;;;;;;5.47;2.20;;;9.60;99.90;;;;;;6092227;23;20028;-81
2023/10/30 03:21:04;;;;;;;6.55;2.15;;;9.60;99.90;;;;;;6115036;23;20215;-81
2023/10/30 03:23:30;;;;;;;6.43;2.10;;;9.60;99.90;;;;;;6115311;23;20028;-81
2023/10/30 03:25:56;;;;;;;7.20;2.08;;;9.50;99.90;;;;;;6112990;23;20347;-82
2023/10/30 03:28:21;;;;;;;8.57;1.95;;;9.50;99.90;;;;;;6091141;23;20536;-81
2023/10/30 03:30:47;;;;;;;17.70;2.50;;;9.60;99.90;;;;;;6090710;23;20096;-81
2023/10/30 03:33:13;;;;;;;7.85;2.35;;;9.50;99.90;;;;;;6091827;23;20097;-82
2023/10/30 03:35:39;;;;;;;8.85;1.95;;;9.40;99.90;;;;;;6090256;23;20354;-82
2023/10/30 03:38:05;;;;;;;8.07;1.85;;;9.50;99.90;;;;;;6091047;23;20644;-81
2023/10/30 03:40:31;;;;;;;6.55;2.05;;;9.50;99.90;;;;;;6088302;23;20105;-81
2023/10/30 03:42:57;;;;;;;6.93;2.00;;;9.40;99.90;;;;;;6088430;23;20109;-82
2023/10/30 03:45:22;;;;;;;5.35;1.80;;;9.40;99.90;;;;;;6091088;23;20040;-81
2023/10/30 03:47:51;;;;;;;7.95;2.50;;;9.30;99.90;;;;;;6140450;23;20014;-81
2023/10/30 03:50:17;;;;;;;6.93;2.20;;;9.40;99.90;;;;;;6091674;23;20428;-81
2023/10/30 03:52:44;;;;;;;9.10;2.20;;;9.40;99.90;;;;;;6115169;23;20079;-81
2023/10/30 03:55:10;;;;;;;12.25;2.75;;;9.40;99.90;;;;;;6114825;23;20032;-81
2023/10/30 03:57:35;;;;;;;9.02;2.05;;;9.40;99.90;;;;;;6089411;23;20014;-81
2023/10/30 04:00:01;;;;;;;5.65;2.00;;;9.40;99.90;;;;;;6090591;23;20092;-82
2023/10/30 04:02:29;;;;;;;5.88;2.00;;;9.50;99.90;;;;;;6115686;23;20618;-81
2023/10/30 04:04:55;;;;;;;8.57;1.85;;;9.50;99.90;;;;;;6140382;23;20013;-82
2023/10/30 04:07:20;;;;;;;5.53;1.88;;;9.50;99.90;;;;;;6090614;23;20092;-81
2023/10/30 04:09:46;;;;;;;8.10;2.00;;;9.50;99.90;;;;;;6091188;23;20087;-81
2023/10/30 04:12:12;;;;;;;5.78;1.92;;;9.50;99.90;;;;;;6087429;23;20032;-81
2023/10/30 04:14:38;;;;;;;12.38;3.03;;;9.50;99.90;;;;;;6089618;23;20075;-81
2023/10/30 04:17:04;;;;;;;6.53;1.90;;;9.50;99.90;;;;;;6089509;23;20076;-81
2023/10/30 04:19:30;;;;;;;7.82;2.10;;;9.50;99.90;;;;;;6090096;23;20355;-80
2023/10/30 04:21:55;;;;;;;8.07;2.45;;;9.50;99.90;;;;;;6115326;23;20351;-81
2023/10/30 04:24:22;;;;;;;9.15;2.15;;;9.50;99.90;;;;;;6116452;23;20013;-81
2023/10/30 04:26:47;;;;;;;13.45;2.13;;;9.60;99.90;;;;;;6112770;23;20324;-81
2023/10/30 04:29:13;;;;;;;10.82;2.88;;;9.60;99.90;;;;;;6116891;23;20028;-81
2023/10/30 04:31:39;;;;;;;11.07;2.72;;;9.60;99.90;;;;;;6114822;23;20220;-81
2023/10/30 04:34:04;;;;;;;9.02;2.35;;;9.60;99.90;;;;;;6091096;23;20021;-81
2023/10/30 04:36:30;;;;;;;10.73;2.42;;;9.60;99.90;;;;;;6139731;23;20025;-82
2023/10/30 04:38:56;;;;;;;9.85;2.20;;;9.60;99.90;;;;;;6115242;23;20032;-81
2023/10/30 04:41:22;;;;;;;8.23;2.20;;;9.60;99.90;;;;;;6113079;23;20025;-82
2023/10/30 04:43:47;;;;;;;8.35;2.20;;;9.50;99.90;;;;;;6113894;23;20509;-81
2023/10/30 04:46:14;;;;;;;9.00;2.10;;;9.60;99.90;;;;;;6114686;23;20344;-82
2023/10/30 04:48:39;;;;;;;9.93;2.35;;;9.50;99.90;;;;;;6115667;23;20108;-81
2023/10/30 04:51:06;;;;;;;6.47;1.95;;;9.50;99.90;;;;;;6113188;23;20440;-81
2023/10/30 04:53:32;;;;;;;14.48;2.55;;;9.50;99.90;;;;;;6088948;23;20431;-81
2023/10/30 04:55:57;;;;;;;7.70;2.10;;;9.40;99.90;;;;;;6111641;23;20032;-80
2023/10/30 04:58:23;;;;;;;5.20;1.90;;;9.50;99.90;;;;;;6090983;23;20048;-82
2023/10/30 05:00:49;;;;;;;9.63;2.75;;;9.40;99.90;;;;;;6089530;23;20483;-81
2023/10/30 05:03:14;;;;;;;9.35;2.45;;;9.40;99.90;;;;;;6114205;23;20024;-81
2023/10/30 05:05:40;;;;;;;10.77;2.50;;;9.50;99.90;;;;;;6137167;23;20040;-81
2023/10/30 05:08:06;;;;;;;6.75;2.00;;;9.40;99.90;;;;;;6089750;23;20051;-81
2023/10/30 05:10:37;;;;;;;13.07;2.22;;;9.40;99.90;;;;;;6088248;23;20366;-81
2023/10/30 05:13:04;;;;;;;7.80;2.40;;;9.30;99.90;;;;;;6138123;23;20052;-82
2023/10/30 05:15:29;;;;;;;9.10;2.25;;;9.20;99.90;;;;;;6116019;23;20009;-81
2023/10/30 05:17:56;;;;;;;7.30;2.00;;;9.30;99.90;;;;;;6115762;23;20033;-81
2023/10/30 05:20:25;;;;;;;8.10;2.20;;;9.30;99.90;;;;;;6089543;23;20530;-81
2023/10/30 05:22:51;;;;;;;13.32;2.97;;;9.30;99.90;;;;;;6113147;23;20016;-81
2023/10/30 05:25:17;;;;;;;11.32;2.40;;;9.20;99.90;;;;;;6089760;23;20450;-81
2023/10/30 05:27:44;;;;;;;14.63;2.33;;;9.20;99.90;;;;;;6089674;23;20016;-82
2023/10/30 05:30:10;;;;;;;11.00;2.30;;;9.20;99.90;;;;;;6090286;23;20316;-82
2023/10/30 05:32:35;;;;;;;7.30;2.40;;;9.20;99.90;;;;;;6114754;23;20049;-81
2023/10/30 05:35:01;;;;;;;8.98;2.17;;;9.10;99.90;;;;;;6114793;23;20316;-82
2023/10/30 05:37:27;;;;;;;10.18;2.13;;;9.00;99.90;;;;;;6114698;23;20060;-81
2023/10/30 05:39:53;;;;;;;12.35;2.75;;;9.10;99.90;;;;;;6115188;23;20031;-81
2023/10/30 05:42:18;;;;;;;10.45;2.47;;;9.10;99.90;;;;;;6087188;23;20243;-81
2023/10/30 05:44:45;;;;;;;9.50;2.28;;;9.10;99.90;;;;;;6089390;23;20326;-81
2023/10/30 05:47:11;;;;;;;9.35;2.33;;;9.20;99.90;;;;;;6114939;23;20483;-81
2023/10/30 05:49:37;;;;;;;7.72;2.08;;;9.10;99.90;;;;;;6114490;23;20088;-81
2023/10/30 05:52:02;;;;;;;8.45;2.17;;;9.00;99.90;;;;;;6114586;23;20396;-81
2023/10/30 05:54:28;;;;;;;14.73;2.83;;;9.10;99.90;;;;;;6114889;23;20025;-82
2023/10/30 05:56:54;;;;;;;7.63;2.22;;;9.10;99.90;;;;;;6136079;23;20013;-81
2023/10/30 05:59:20;;;;;;;10.90;2.67;;;9.20;99.90;;;;;;6113815;23;20399;-81
2023/10/30 06:01:47;;;;;;;14.32;2.58;;;9.10;99.90;;;;;;6113888;23;20392;-82
2023/10/30 06:04:13;;;;;;;6.50;2.22;;;9.10;99.90;;;;;;6115384;23;20032;-81
2023/10/30 06:06:39;;;;;;;8.82;2.55;;;9.10;99.90;;;;;;6114530;23;20017;-81
2023/10/30 06:09:04;;;;;;;13.32;2.45;;;9.10;99.90;;;;;;6092781;23;20020;-81
2023/10/30 06:11:30;;;;;;;14.20;2.55;;;9.10;99.90;;;;;;6138831;23;20493;-81
2023/10/30 06:13:55;;;;;;;12.88;2.53;;;9.10;99.90;;;;;;6115833;23;20177;-81
2023/10/30 06:16:21;;;;;;;12.85;2.60;;;9.10;99.90;;;;;;6117246;23;20346;-81
2023/10/30 06:18:47;;;;;;;8.93;2.25;;;9.20;99.90;;;;;;6093346;23;20025;-81
2023/10/30 06:21:17;;;;;;;8.93;2.55;;;9.20;99.90;;;;;;6115618;23;20017;-81
2023/10/30 06:23:43;;;;;;;6.03;2.03;;;9.20;99.90;;;;;;6091998;23;20227;-81
2023/10/30 06:26:10;;;;;;;8.20;2.30;;;9.10;99.90;;;;;;6088442;23;20189;-82
2023/10/30 06:28:40;;;;;;;10.05;2.55;;;9.20;99.90;;;;;;6115840;23;20423;-81
2023/10/30 06:31:18;;;;;;;14.02;2.60;;;9.20;99.90;;;;;;6114311;23;20016;-81
2023/10/30 06:33:48;;;;;;;8.55;2.03;;;9.20;99.90;;;;;;6089840;23;20017;-82
2023/10/30 06:36:14;;;;;;;12.98;2.17;;;9.20;99.90;;;;;;6116211;23;20018;-81
2023/10/30 06:38:40;;;;;;;8.15;2.22;;;9.30;99.90;;;;;;6116054;23;20051;-81
2023/10/30 06:41:06;;;;;;;10.20;2.40;;;9.30;99.90;;;;;;6113094;23;20021;-81
2023/10/30 06:43:32;;;;;;;12.35;2.53;;;9.30;99.90;;;;;;6090951;23;20032;-81
2023/10/30 06:46:02;;;;;;;14.38;2.30;;;9.40;99.90;;;;;;6116062;23;20024;-81
2023/10/30 06:48:28;;;;;;;7.68;2.25;;;9.50;99.90;;;;;;6092333;23;20016;-81
2023/10/30 06:50:55;;;;;;;11.93;2.33;;;9.50;99.90;;;;;;6116623;23;20343;-82
2023/10/30 06:53:21;;;;;;;8.23;2.33;;;9.60;99.90;;;;;;6092345;23;20481;-81
2023/10/30 06:55:47;;;;;;;9.82;2.50;;;9.60;99.90;;;;;;6112866;23;20308;-82
2023/10/30 06:58:13;;;;;;;12.80;2.80;;;9.70;99.90;;;;;;6116842;23;20083;-82
2023/10/30 07:00:38;;;;;;;9.40;2.45;;;9.80;99.90;;;;;;6116795;23;20417;-82
2023/10/30 07:03:04;;;;;;;8.15;1.98;;;9.90;99.90;;;;;;6115311;23;20459;-82
2023/10/30 07:05:30;;;;;;;8.88;2.20;;;10.00;99.90;;;;;;6092061;23;20427;-81
2023/10/30 07:07:56;;;;;;;14.23;2.60;;;10.10;99.90;;;;;;6091688;23;20013;-82
2023/10/30 07:10:21;;;;;;;10.10;2.05;;;10.10;99.90;;;;;;6115591;23;20513;-81
2023/10/30 07:12:47;;;;;;;12.45;2.70;;;10.20;99.90;;;;;;6140101;23;20010;-82
2023/10/30 07:15:13;;;;;;;8.88;2.00;;;10.30;99.90;;;;;;6092642;23;20478;-81
2023/10/30 07:17:38;;;;;;;18.05;2.53;;;10.50;99.90;;;;;;6116257;23;20092;-81
2023/10/30 07:20:04;;;;;;;9.48;2.03;;;10.60;99.90;;;;;;6116266;23;20414;-82
2023/10/30 07:22:30;;;;;;;8.52;2.40;;;10.70;99.90;;;;;;6114238;23;20068;-82
2023/10/30 07:24:56;;;;;;;9.00;2.15;;;10.80;99.90;;;;;;6115453;23;20340;-81
2023/10/30 07:27:23;;;;;;;13.60;2.58;;;10.80;99.90;;;;;;6090070;23;20447;-81
2023/10/30 07:29:48;;;;;;;11.13;2.28;;;10.80;99.90;;;;;;6117776;23;20044;-81
2023/10/30 07:32:14;;;;;;;9.77;2.08;;;10.90;99.90;;;;;;6090659;23;20277;-81
2023/10/30 07:34:43;;;;;;;11.02;2.58;;;10.90;99.90;;;;;;6115761;23;20036;-81
2023/10/30 07:37:10;;;;;;;12.00;2.33;;;10.90;99.90;;;;;;6118118;23;20060;-81
2023/10/30 07:39:35;;;;;;;10.02;2.17;;;11.00;99.90;;;;;;6143565;23;20018;-82
2023/10/30 07:42:01;;;;;;;10.95;2.13;;;11.00;99.90;;;;;;6115404;23;20098;-82
2023/10/30 07:44:27;;;;;;;8.40;2.20;;;11.10;99.90;;;;;;6094879;23;20014;-82
2023/10/30 07:46:53;;;;;;;7.13;2.28;;;11.00;99.90;;;;;;6117938;23;20024;-81
2023/10/30 07:49:19;;;;;;;10.00;2.20;;;11.10;99.90;;;;;;6093895;23;20007;-82
2023/10/30 07:51:45;;;;;;;11.48;2.53;;;11.10;99.90;;;;;;6092838;23;20351;-81
2023/10/30 07:54:11;;;;;;;8.77;2.33;;;11.10;99.90;;;;;;6118967;23;20013;-82
2023/10/30 07:56:37;;;;;;;12.55;3.17;;;11.20;99.90;;;;;;6092190;23;20036;-82
2023/10/30 07:59:06;;;;;;;8.77;2.42;;;11.20;99.90;;;;;;6118271;23;20017;-82
2023/10/30 08:01:33;;;;;;;12.05;2.50;;;11.20;99.90;;;;;;6093745;23;20013;-82
2023/10/30 08:03:59;;;;;;;7.15;2.13;;;11.20;99.90;;;;;;6093862;23;20022;-82
2023/10/30 08:06:25;;;;;;;11.05;2.38;;;11.30;99.90;;;;;;6093595;23;20017;-82
2023/10/30 08:08:52;;;;;;;8.38;2.45;;;11.30;99.90;;;;;;6093937;23;20045;-82
2023/10/30 08:11:18;;;;;;;7.20;2.50;;;11.30;99.90;;;;;;6091795;23;20114;-82
2023/10/30 08:13:43;;;;;;;7.50;2.20;;;11.30;99.90;;;;;;6142299;23;20013;-82
2023/10/30 08:16:10;;;;;;;10.13;2.35;;;11.30;99.90;;;;;;6094215;23;20346;-82
2023/10/30 08:18:37;;;;;;;10.65;2.25;;;11.40;99.90;;;;;;6118215;23;20017;-82
2023/10/30 08:21:02;;;;;;;12.77;2.63;;;11.40;99.90;;;;;;6093928;23;20083;-82
2023/10/30 08:23:28;;;;;;;9.27;2.58;;;11.50;99.90;;;;;;6118862;23;20122;-81
2023/10/30 08:25:54;;;;;;;11.35;2.30;;;11.50;99.90;;;;;;6115201;23;20025;-81
2023/10/30 08:28:19;;;;;;;8.98;2.25;;;11.50;99.90;;;;;;6093738;23;20009;-81
2023/10/30 08:30:45;;;;;;;6.13;2.05;;;11.60;99.90;;;;;;6093720;23;20080;-82
2023/10/30 08:33:11;;;;;;;7.88;2.13;;;11.60;99.90;;;;;;6118323;23;20076;-82
2023/10/30 08:35:36;;;;;;;11.23;2.47;;;11.60;99.90;;;;;;6118151;23;20013;-81
2023/10/30 08:38:03;;;;;;;10.70;2.50;;;11.70;99.90;;;;;;6118729;23;20040;-82
2023/10/30 08:40:29;;;;;;;9.20;2.03;;;11.80;99.90;;;;;;6116651;23;20017;-82
2023/10/30 08:42:54;;;;;;;12.07;2.45;;;11.80;99.90;;;;;;6092314;23;20630;-82
2023/10/30 08:45:21;;;;;;;8.23;2.45;;;11.90;99.90;;;;;;6119225;23;20385;-82
2023/10/30 08:47:47;;;;;;;9.02;2.30;;;11.90;99.90;;;;;;6118142;23;20092;-82
2023/10/30 08:50:12;;;;;;;8.25;2.22;;;12.00;99.90;;;;;;6117886;23;20030;-82
2023/10/30 08:52:39;;;;;;;6.50;2.17;;;12.00;99.90;;;;;;6118141;23;20072;-81
2023/10/30 08:55:05;;;;;;;7.60;2.53;;;12.10;99.90;;;;;;6117436;23;20273;-82
2023/10/30 08:57:31;;;;;;;10.27;3.42;;;12.10;99.90;;;;;;6116065;23;20021;-81
2023/10/30 08:59:56;;;;;;;9.88;2.65;;;12.10;99.90;;;;;;6093971;23;20018;-81
2023/10/30 09:02:22;;;;;;;6.88;2.60;;;12.30;99.90;;;;;;6117840;23;20136;-82
2023/10/30 09:04:47;;;;;;;10.93;2.63;;;12.30;99.90;;;;;;6118361;23;20601;-81
2023/10/30 09:07:13;;;;;;;16.15;2.45;;;12.40;99.90;;;;;;6117705;23;20493;-82
2023/10/30 09:09:39;;;;;;;10.18;3.05;;;12.40;99.90;;;;;;6094239;23;20040;-82
2023/10/30 09:12:05;;;;;;;11.02;2.47;;;12.60;99.90;;;;;;6090514;23;20361;-81
2023/10/30 09:14:31;;;;;;;9.32;2.95;;;12.60;99.90;;;;;;6118401;23;20013;-81
2023/10/30 09:16:56;;;;;;;8.82;2.28;;;12.60;99.90;;;;;;6117002;23;20229;-81
2023/10/30 09:19:22;;;;;;;9.10;2.20;;;12.50;99.90;;;;;;6093755;23;20355;-82
2023/10/30 09:21:48;;;;;;;10.32;2.50;;;12.60;99.90;;;;;;6092657;23;20018;-81
2023/10/30 09:24:14;;;;;;;11.80;2.70;;;12.70;99.90;;;;;;6093975;23;20017;-81
2023/10/30 09:26:39;;;;;;;10.18;2.50;;;12.90;99.90;;;;;;6090372;23;20414;-82
2023/10/30 09:29:05;;;;;;;9.77;2.10;;;13.00;99.90;;;;;;6092184;23;20478;-82
2023/10/30 09:31:32;;;;;;;8.32;2.15;;;13.20;99.90;;;;;;6116872;23;20017;-82
2023/10/30 09:33:59;;;;;;;9.02;2.13;;;13.20;99.90;;;;;;6117312;23;20021;-82
2023/10/30 09:36:25;;;;;;;10.95;2.70;;;13.40;99.90;;;;;;6093051;23;20036;-81
2023/10/30 09:38:51;;;;;;;9.43;2.03;;;13.30;99.90;;;;;;6093785;23;20018;-82
2023/10/30 09:41:19;;;;;;;6.32;1.92;;;13.30;99.90;;;;;;6091409;23;20021;-82
2023/10/30 09:43:49;;;;;;;5.95;1.98;;;13.40;99.90;;;;;;6117125;23;20025;-82
2023/10/30 09:46:16;;;;;;;7.68;1.98;;;13.40;99.90;;;;;;6092131;23;20015;-82
2023/10/30 09:48:44;;;;;;;9.93;2.25;;;13.50;99.90;;;;;;6093306;23;20017;-82
2023/10/30 09:51:11;;;;;;;10.32;1.70;;;13.50;99.90;;;;;;6116773;23;20010;-82
2023/10/30 09:53:38;;;;;;;13.77;2.40;;;13.60;99.90;;;;;;6117759;23;20542;-82
2023/10/30 09:56:06;;;;;;;7.72;2.15;;;13.60;99.90;;;;;;6140214;23;20286;-82
2023/10/30 09:58:32;;;;;;;10.93;2.25;;;13.50;99.90;;;;;;6117290;23;20017;-82
2023/10/30 10:00:59;;;;;;;8.25;2.00;;;13.60;99.90;;;;;;6116481;23;20080;-81
2023/10/30 10:03:25;;;;;;;5.97;1.73;;;13.70;99.90;;;;;;6143135;23;20024;-82
2023/10/30 10:05:59;;;;;;;8.63;1.85;;;13.70;99.90;;;;;;6116345;23;20021;-82
2023/10/30 10:08:25;;;;;;;8.60;2.10;;;13.70;99.90;;;;;;6117749;23;20104;-82
2023/10/30 10:11:02;;;;;;;8.13;2.13;;;13.80;99.90;;;;;;6114985;23;20341;-82
2023/10/30 10:13:33;;;;;;;7.82;2.28;;;13.80;99.90;;;;;;6092484;23;20152;-81
2023/10/30 10:16:00;;;;;;;11.10;2.25;;;13.80;99.90;;;;;;6092501;23;20025;-82
2023/10/30 10:18:29;;;;;;;6.28;2.17;;;13.70;99.90;;;;;;6092628;23;20022;-81
2023/10/30 10:21:02;;;;;;;7.60;1.98;;;13.80;99.90;;;;;;6116962;23;20021;-81
2023/10/30 10:23:31;;;;;;;11.07;2.08;;;13.60;99.90;;;;;;6117081;23;20024;-81
2023/10/30 10:26:03;;;;;;;11.63;2.53;;;13.50;99.90;;;;;;6091000;23;20452;-81
2023/10/30 10:28:30;;;;;;;7.80;2.00;;;13.40;99.90;;;;;;6092840;23;20036;-82
2023/10/30 10:30:55;;;;;;;11.27;2.28;;;13.30;99.90;;;;;;6116734;23;20014;-81
2023/10/30 10:33:22;;;;;;;10.50;2.33;;;13.20;99.90;;;;;;6116748;23;20470;-82
2023/10/30 10:35:53;;;;;;;11.00;1.98;;;13.20;99.90;;;;;;6092551;23;20025;-82
2023/10/30 10:38:21;;;;;;;7.63;2.28;;;13.40;99.90;;;;;;6141682;23;20057;-82
2023/10/30 10:40:47;;;;;;;8.65;2.17;;;13.60;99.90;;;;;;6090465;23;20097;-81
2023/10/30 10:43:21;;;;;;;10.02;2.65;;;13.60;99.90;;;;;;6117143;23;20448;-82
2023/10/30 10:45:48;;;;;;;8.75;2.03;;;13.60;99.90;;;;;;6116251;23;20191;-82
2023/10/30 10:48:15;;;;;;;5.35;2.25;;;13.70;99.90;;;;;;6117857;23;20010;-82
2023/10/30 10:50:41;;;;;;;7.63;2.15;;;13.70;99.90;;;;;;6092530;23;20296;-81
2023/10/30 10:53:08;;;;;;;9.25;2.22;;;13.70;99.90;;;;;;6141829;23;20016;-82
2023/10/30 10:55:44;;;;;;;9.73;1.88;;;13.80;99.90;;;;;;6091083;23;20068;-82
2023/10/30 10:58:12;;;;;;;7.70;2.13;;;13.90;99.90;;;;;;6091919;23;20199;-82
2023/10/30 11:00:49;;;;;;;10.57;2.38;;;13.80;99.90;;;;;;6092720;23;20474;-81
2023/10/30 11:03:15;;;;;;;11.70;2.13;;;13.90;99.90;;;;;;6141203;23;20451;-82
2023/10/30 11:05:43;;;;;;;13.18;2.22;;;14.00;99.90;;;;;;6115448;23;20093;-82
2023/10/30 11:08:25;;;;;;;6.50;1.73;;;14.10;99.90;;;;;;6116278;23;20029;-82
2023/10/30 11:11:13;;;;;;;9.43;2.20;;;14.20;99.90;;;;;;6115441;23;20059;-82
2023/10/30 11:14:08;;;;;;;7.90;2.22;;;14.20;99.90;;;;;;6093109;23;20092;-82
2023/10/30 11:17:02;;;;;;;10.70;2.28;;;14.50;99.90;;;;;;6081867;23;20455;-82
2023/10/30 11:19:28;;;;;;;7.85;1.98;;;14.50;99.90;;;;;;6094356;23;20032;-82
2023/10/30 11:21:54;;;;;;;7.35;1.98;;;14.60;99.90;;;;;;6117689;23;20014;-82
2023/10/30 11:24:41;;;;;;;14.25;2.15;;;14.80;99.90;;;;;;6094233;23;20045;-82
2023/10/30 11:27:25;;;;;;;9.07;2.50;;;14.60;99.90;;;;;;6115334;23;20680;-82
2023/10/30 11:30:22;;;;;;;11.93;2.38;;;14.60;99.90;;;;;;6118929;23;20023;-81
2023/10/30 11:32:48;;;;;;;9.88;2.13;;;14.60;99.90;;;;;;6140508;23;20382;-82
2023/10/30 11:35:13;;;;;;;8.10;1.90;;;14.60;99.90;;;;;;6116526;23;20021;-81
2023/10/30 11:37:40;;;;;;;12.82;2.15;;;14.50;99.90;;;;;;6092111;23;20272;-82
2023/10/30 11:40:10;;;;;;;8.55;2.15;;;14.70;99.90;;;;;;6093093;23;20014;-82
2023/10/30 11:42:39;;;;;;;7.85;3.20;;;14.70;99.90;;;;;;6116180;23;20014;-82
2023/10/30 11:45:25;;;;;;;10.10;2.63;;;14.70;99.90;;;;;;6119272;23;20017;-81
2023/10/30 11:48:05;;;;;;;10.95;2.00;;;14.70;99.90;;;;;;6117950;23;20029;-82
2023/10/30 11:50:38;;;;;;;10.77;2.50;;;14.80;99.90;;;;;;6117725;23;20009;-82
2023/10/30 11:53:19;;;;;;;8.60;2.20;;;14.80;99.90;;;;;;6143333;23;20010;-82
2023/10/30 11:55:47;;;;;;;10.00;2.67;;;14.90;99.90;;;;;;6092128;23;20097;-81
2023/10/30 11:58:13;;;;;;;9.57;2.10;;;14.80;99.90;;;;;;6118358;23;20335;-81
2023/10/30 12:00:44;;;;;;;8.85;2.45;;;14.90;99.90;;;;;;6118222;23;20021;-81
2023/10/30 12:03:10;;;;;;;8.10;2.13;;;14.70;99.90;;;;;;6094020;23;20017;-82
2023/10/30 12:05:36;;;;;;;12.00;2.20;;;14.60;99.90;;;;;;6093804;23;20474;-81
2023/10/30 12:08:04;;;;;;;9.25;2.10;;;14.40;99.90;;;;;;6093963;23;20018;-82
2023/10/30 12:10:30;;;;;;;10.68;2.08;;;14.50;99.90;;;;;;6116237;23;20327;-82
2023/10/30 12:12:57;;;;;;;5.80;2.17;;;14.40;99.90;;;;;;6118098;23;20427;-82
2023/10/30 12:15:25;;;;;;;9.98;2.40;;;14.40;99.90;;;;;;6093862;23;20102;-81
2023/10/30 12:17:50;;;;;;;6.68;1.92;;;14.40;99.90;;;;;;6093224;23;20028;-82
2023/10/30 12:20:16;;;;;;;9.75;2.22;;;14.30;99.90;;;;;;6117926;23;20013;-82
2023/10/30 12:22:44;;;;;;;10.30;2.25;;;14.30;99.90;;;;;;6093045;23;20399;-82
2023/10/30 12:25:17;;;;;;;11.70;2.42;;;14.40;99.90;;;;;;6117134;23;20028;-82
2023/10/30 12:27:43;;;;;;;6.55;2.00;;;14.40;99.90;;;;;;6116177;23;20014;-81
2023/10/30 12:30:11;;;;;;;6.80;1.83;;;14.60;99.90;;;;;;6117482;23;20072;-82
2023/10/30 12:32:37;;;;;;;6.57;2.10;;;14.70;99.90;;;;;;6118031;23;20467;-82
2023/10/30 12:35:16;;;;;;;10.82;2.30;;;14.70;99.90;;;;;;6118416;23;20105;-82
2023/10/30 12:37:42;;;;;;;9.43;2.78;;;14.60;99.90;;;;;;6116328;23;20021;-81
2023/10/30 12:40:09;;;;;;;11.13;2.95;;;14.80;99.90;;;;;;6117346;23;20025;-81
2023/10/30 12:42:37;;;;;;;6.03;2.30;;;14.80;99.90;;;;;;6115380;23;20240;-82
2023/10/30 12:45:07;;;;;;;8.55;2.42;;;14.70;99.90;;;;;;6117561;23;20371;-81
2023/10/30 12:47:34;;;;;;;10.55;2.35;;;14.70;99.90;;;;;;6117158;23;20028;-82